createdAt,value
2022-10-25T00:01:19.924Z,2.85
2022-10-25T00:04:42.727Z,2.10
2022-10-25T00:08:05.124Z,2.85
2022-10-25T00:11:28.471Z,2.67
2022-10-25T00:14:49.894Z,2.58
2022-10-25T00:18:11.705Z,3.17
2022-10-25T00:21:34.308Z,2.53
2022-10-25T00:24:55.580Z,2.60
2022-10-25T00:28:17.324Z,2.75
2022-10-25T00:31:39.440Z,2.75
2022-10-25T00:35:00.956Z,3.03
2022-10-25T00:38:24.066Z,2.92
2022-10-25T00:41:45.528Z,2.83
2022-10-25T00:45:20.786Z,2.40
2022-10-25T00:48:45.251Z,2.53
2022-10-25T00:52:09.095Z,3.03
2022-10-25T00:55:32.083Z,2.17
2022-10-25T00:58:56.609Z,2.95
2022-10-25T01:02:19.373Z,2.70
2022-10-25T01:05:40.953Z,3.00
2022-10-25T01:09:04.002Z,2.85
2022-10-25T01:12:26.901Z,2.78
2022-10-25T01:15:59.515Z,2.85
2022-10-25T01:19:46.590Z,2.80
2022-10-25T01:23:26.165Z,2.63
2022-10-25T01:27:03.386Z,2.80
2022-10-25T01:30:29.172Z,3.03
2022-10-25T01:33:58.707Z,2.78
2022-10-25T01:37:28.869Z,2.92
2022-10-25T01:40:58.870Z,2.65
2022-10-25T01:44:31.027Z,3.05
2022-10-25T01:47:57.201Z,3.05
2022-10-25T01:51:20.095Z,2.80
2022-10-25T01:54:42.515Z,3.00
2022-10-25T01:58:14.999Z,3.15
2022-10-25T02:05:19.083Z,3.10
2022-10-25T02:08:47.925Z,2.80
2022-10-25T02:12:15.501Z,2.78
2022-10-25T02:15:41.553Z,2.75
2022-10-25T02:19:07.406Z,3.30
2022-10-25T02:22:33.700Z,3.10
2022-10-25T02:25:58.024Z,2.90
2022-10-25T02:29:21.780Z,3.00
2022-10-25T02:32:44.621Z,3.42
2022-10-25T02:36:08.018Z,3.00
2022-10-25T02:39:31.589Z,3.55
2022-10-25T02:42:54.756Z,2.95
2022-10-25T02:46:18.834Z,3.47
2022-10-25T02:49:41.076Z,3.40
2022-10-25T02:53:02.826Z,3.17
2022-10-25T02:56:24.515Z,2.80
2022-10-25T02:59:47.056Z,3.13
2022-10-25T03:03:08.165Z,3.08
2022-10-25T03:06:30.218Z,3.53
2022-10-25T03:09:51.845Z,2.80
2022-10-25T03:13:13.636Z,2.65
2022-10-25T03:16:36.386Z,3.10
2022-10-25T03:19:58.054Z,2.85
2022-10-25T03:23:19.892Z,3.10
2022-10-25T03:26:41.613Z,2.90
2022-10-25T03:30:03.414Z,3.53
2022-10-25T03:33:27.427Z,3.15
2022-10-25T03:36:48.757Z,3.03
2022-10-25T03:40:11.755Z,2.97
2022-10-25T03:43:33.289Z,3.08
2022-10-25T03:46:54.566Z,2.88
2022-10-25T03:50:18.165Z,2.80
2022-10-25T03:53:39.688Z,3.20
2022-10-25T03:57:01.001Z,2.88
2022-10-25T04:00:23.218Z,3.00
2022-10-25T04:03:45.285Z,3.38
2022-10-25T04:07:08.580Z,2.85
2022-10-25T04:10:29.998Z,2.88
2022-10-25T04:13:51.085Z,3.35
2022-10-25T04:17:12.297Z,3.40
2022-10-25T04:20:33.628Z,3.20
2022-10-25T04:24:01.960Z,2.85
2022-10-25T04:27:25.640Z,2.88
2022-10-25T04:30:47.162Z,3.42
2022-10-25T04:34:08.499Z,2.75
2022-10-25T04:37:29.769Z,2.90
2022-10-25T04:40:56.596Z,2.90
2022-10-25T04:44:18.719Z,2.67
2022-10-25T04:47:40.287Z,3.00
2022-10-25T04:51:02.236Z,2.40
2022-10-25T04:54:23.667Z,3.20
2022-10-25T04:57:46.305Z,3.15
2022-10-25T05:01:10.378Z,2.83
2022-10-25T05:04:32.147Z,2.65
2022-10-25T05:07:54.076Z,2.80
2022-10-25T05:11:17.433Z,2.83
2022-10-25T05:14:40.613Z,3.15
2022-10-25T05:18:02.896Z,2.75
2022-10-25T05:21:28.730Z,2.78
2022-10-25T05:24:50.918Z,2.70
2022-10-25T05:28:12.708Z,2.47
2022-10-25T05:31:35.506Z,2.83
2022-10-25T05:34:56.707Z,2.55
2022-10-25T05:38:18.079Z,2.53
2022-10-25T05:41:39.605Z,2.80
2022-10-25T05:45:01.396Z,2.83
2022-10-25T05:48:24.571Z,2.38
2022-10-25T05:51:46.525Z,2.63
2022-10-25T05:55:09.099Z,3.17
2022-10-25T05:58:31.069Z,2.97
2022-10-25T06:01:52.272Z,3.00
2022-10-25T06:05:15.340Z,2.20
2022-10-25T06:08:37.515Z,2.20
2022-10-25T06:11:59.012Z,2.30
2022-10-25T06:15:21.117Z,2.40
2022-10-25T06:18:43.098Z,2.95
2022-10-25T06:22:06.513Z,2.20
2022-10-25T06:25:27.906Z,2.33
2022-10-25T06:28:52.668Z,2.47
2022-10-25T06:32:14.210Z,2.25
2022-10-25T06:35:35.653Z,2.30
2022-10-25T06:39:05.110Z,2.60
2022-10-25T06:42:28.349Z,2.35
2022-10-25T06:45:49.643Z,2.70
2022-10-25T06:49:11.251Z,2.03
2022-10-25T06:52:32.802Z,2.10
2022-10-25T06:55:55.364Z,1.95
2022-10-25T06:59:17.901Z,2.15
2022-10-25T07:02:40.054Z,1.73
2022-10-25T07:06:03.128Z,1.65
2022-10-25T07:09:26.432Z,1.95
2022-10-25T07:12:49.776Z,1.55
2022-10-25T07:16:13.375Z,2.13
2022-10-25T07:19:35.036Z,1.95
2022-10-25T07:22:59.956Z,2.20
2022-10-25T07:26:24.942Z,1.98
2022-10-25T07:29:48.863Z,6.30
2022-10-25T07:33:10.329Z,1.85
2022-10-25T07:36:32.305Z,1.92
2022-10-25T07:39:54.042Z,1.75
2022-10-25T07:43:15.334Z,2.10
2022-10-25T07:46:38.061Z,1.70
2022-10-25T07:50:00.459Z,1.80
2022-10-25T07:53:22.225Z,3.70
2022-10-25T07:56:43.989Z,2.60
2022-10-25T08:00:07.079Z,1.80
2022-10-25T08:03:30.263Z,2.95
2022-10-25T08:06:52.381Z,2.60
2022-10-25T08:10:14.350Z,3.28
2022-10-25T08:13:36.714Z,2.38
2022-10-25T08:16:58.295Z,2.33
2022-10-25T08:20:26.185Z,2.22
2022-10-25T08:23:59.045Z,2.00
2022-10-25T08:27:21.001Z,2.50
2022-10-25T08:30:42.767Z,2.40
2022-10-25T08:34:05.712Z,1.85
2022-10-25T08:37:28.583Z,1.88
2022-10-25T08:40:57.523Z,2.08
2022-10-25T08:44:28.698Z,2.17
2022-10-25T08:47:55.133Z,2.28
2022-10-25T08:51:27.592Z,1.67
2022-10-25T08:54:51.162Z,2.08
2022-10-25T08:58:18.741Z,1.92
2022-10-25T09:01:46.218Z,1.90
2022-10-25T09:05:17.699Z,2.28
2022-10-25T09:08:52.513Z,2.17
2022-10-25T09:12:26.609Z,2.38
2022-10-25T09:15:55.916Z,2.13
2022-10-25T09:19:22.494Z,2.47
2022-10-25T09:22:47.613Z,2.75
2022-10-25T09:26:18.760Z,2.70
2022-10-25T09:29:47.661Z,2.67
2022-10-25T09:33:12.403Z,2.97
2022-10-25T09:36:43.188Z,2.63
2022-10-25T09:40:11.181Z,2.50
2022-10-25T09:43:38.530Z,2.75
2022-10-25T09:47:08.971Z,3.00
2022-10-25T09:50:33.556Z,3.00
2022-10-25T09:53:56.959Z,2.65
2022-10-25T09:57:18.609Z,3.15
2022-10-25T10:00:41.249Z,2.75
2022-10-25T10:04:16.910Z,2.35
2022-10-25T10:07:38.754Z,2.30
2022-10-25T10:11:00.807Z,1.90
2022-10-25T10:14:32.472Z,1.80
2022-10-25T10:18:22.182Z,2.00
2022-10-25T10:21:46.932Z,2.10
2022-10-25T10:25:18.588Z,2.00
2022-10-25T10:28:46.088Z,2.30
2022-10-25T10:32:24.627Z,2.22
2022-10-25T10:35:46.604Z,2.40
2022-10-25T10:39:22.386Z,2.30
2022-10-25T10:42:44.491Z,2.67
2022-10-25T10:46:11.026Z,2.42
2022-10-25T10:49:37.352Z,2.92
2022-10-25T10:53:01.032Z,2.78
2022-10-25T10:56:24.194Z,2.58
2022-10-25T10:59:54.936Z,2.50
2022-10-25T11:03:59.165Z,2.70
2022-10-25T11:07:33.379Z,2.92
2022-10-25T11:11:14.206Z,2.60
2022-10-25T11:14:37.016Z,2.35
2022-10-25T11:18:03.843Z,2.40
2022-10-25T11:21:40.523Z,2.70
2022-10-25T11:25:17.647Z,2.50
2022-10-25T11:28:46.310Z,3.08
2022-10-25T11:32:33.589Z,2.90
2022-10-25T11:36:32.029Z,2.20
2022-10-25T11:40:03.736Z,2.63
2022-10-25T11:43:42.310Z,2.33
2022-10-25T11:47:11.916Z,2.35
2022-10-25T11:50:44.277Z,2.33
2022-10-25T11:54:18.657Z,2.10
2022-10-25T11:57:51.933Z,2.30
2022-10-25T12:01:34.364Z,2.10
2022-10-25T12:05:11.477Z,2.65
2022-10-25T12:08:43.043Z,2.30
2022-10-25T12:12:08.236Z,2.20
2022-10-25T12:15:38.673Z,2.22
2022-10-25T12:19:09.069Z,2.70
2022-10-25T12:22:37.868Z,2.70
2022-10-25T12:26:03.252Z,2.42
2022-10-25T12:29:33.068Z,2.45
2022-10-25T12:32:58.759Z,3.17
2022-10-25T12:36:27.799Z,2.50
2022-10-25T12:39:52.254Z,2.35
2022-10-25T12:43:22.378Z,2.33
2022-10-25T12:47:21.079Z,2.70
2022-10-25T12:50:54.425Z,2.55
2022-10-25T12:54:32.146Z,2.70
2022-10-25T12:58:10.272Z,2.50
2022-10-25T13:01:51.788Z,2.80
2022-10-25T13:05:33.618Z,2.65
2022-10-25T13:09:09.633Z,2.70
2022-10-25T13:12:32.110Z,2.88
2022-10-25T13:15:58.829Z,2.58
2022-10-25T13:19:49.867Z,2.70
2022-10-25T13:23:45.734Z,2.90
2022-10-25T13:27:23.887Z,2.80
2022-10-25T13:30:45.884Z,3.00
2022-10-25T13:34:37.131Z,2.97
2022-10-25T13:38:08.187Z,3.22
2022-10-25T13:41:45.213Z,3.20
2022-10-25T13:45:09.932Z,3.33
2022-10-25T13:48:34.025Z,3.75
2022-10-25T13:51:58.833Z,3.97
2022-10-25T13:55:23.745Z,2.53
2022-10-25T13:58:48.616Z,2.00
2022-10-25T14:02:18.463Z,1.92
2022-10-25T14:06:15.042Z,2.15
2022-10-25T14:09:41.621Z,2.28
2022-10-25T14:13:17.220Z,2.30
2022-10-25T14:16:45.120Z,2.65
2022-10-25T14:20:10.362Z,3.15
2022-10-25T14:23:35.386Z,2.88
2022-10-25T14:27:00.693Z,2.80
2022-10-25T14:30:25.369Z,2.88
2022-10-25T14:33:51.623Z,3.25
2022-10-25T14:37:15.883Z,2.90
2022-10-25T14:40:37.347Z,2.63
2022-10-25T14:44:00.998Z,2.90
2022-10-25T14:47:30.224Z,2.90
2022-10-25T14:50:52.396Z,4.25
2022-10-25T14:54:27.107Z,3.47
2022-10-25T14:57:49.218Z,3.67
2022-10-25T15:01:13.204Z,3.40
2022-10-25T15:04:39.750Z,3.50
2022-10-25T15:08:01.767Z,3.10
2022-10-25T15:11:23.907Z,1.80
2022-10-25T15:14:47.426Z,1.50
2022-10-25T15:18:33.978Z,1.40
2022-10-25T15:22:08.102Z,1.95
2022-10-25T15:25:32.309Z,2.00
2022-10-25T15:28:56.338Z,2.05
2022-10-25T15:32:19.461Z,2.42
2022-10-25T15:35:48.672Z,2.45
2022-10-25T15:39:26.078Z,2.35
2022-10-25T15:42:47.872Z,2.90
2022-10-25T15:46:20.902Z,2.80
2022-10-25T15:49:42.515Z,2.60
2022-10-25T15:53:05.142Z,3.53
2022-10-25T15:56:26.523Z,3.72
2022-10-25T15:59:48.117Z,4.13
2022-10-25T16:03:12.800Z,6.47
2022-10-25T16:06:34.516Z,6.85
2022-10-25T16:09:57.817Z,5.10
2022-10-25T16:13:26.065Z,4.05
2022-10-25T16:16:47.840Z,4.28
2022-10-25T16:20:18.151Z,4.90
2022-10-25T16:23:39.663Z,4.93
2022-10-25T16:27:02.219Z,4.32
2022-10-25T16:30:25.413Z,4.28
2022-10-25T16:33:46.905Z,3.78
2022-10-25T16:37:11.342Z,6.32
2022-10-25T16:40:33.672Z,5.97
2022-10-25T16:43:56.741Z,6.68
2022-10-25T16:47:18.058Z,8.05
2022-10-25T16:50:39.489Z,9.48
2022-10-25T16:54:01.319Z,11.82
2022-10-25T16:57:22.592Z,11.93
2022-10-25T17:00:45.138Z,11.80
2022-10-25T17:04:07.307Z,12.38
2022-10-25T17:07:28.549Z,11.75
2022-10-25T17:10:50.341Z,11.20
2022-10-25T17:14:12.719Z,11.20
2022-10-25T17:17:36.235Z,10.85
2022-10-25T17:20:57.611Z,10.00
2022-10-25T17:24:19.296Z,8.85
2022-10-25T17:27:45.423Z,10.15
2022-10-25T17:31:11.637Z,7.72
2022-10-25T17:34:34.284Z,6.15
2022-10-25T17:37:56.542Z,6.93
2022-10-25T17:41:18.248Z,7.32
2022-10-25T17:44:40.477Z,8.88
2022-10-25T17:48:03.832Z,8.90
2022-10-25T17:51:26.918Z,14.23
2022-10-25T17:54:48.184Z,11.40
2022-10-25T17:58:09.707Z,7.60
2022-10-25T18:01:32.740Z,8.23
2022-10-25T18:05:19.006Z,6.88
2022-10-25T18:08:37.692Z,6.85
2022-10-25T18:11:59.113Z,7.30
2022-10-25T18:15:20.565Z,7.18
2022-10-25T18:18:42.103Z,7.30
2022-10-25T18:22:04.248Z,7.18
2022-10-25T18:25:27.561Z,6.85
2022-10-25T18:28:50.060Z,7.00
2022-10-25T18:32:11.928Z,6.93
2022-10-25T18:35:33.964Z,6.70
2022-10-25T18:38:56.136Z,6.85
2022-10-25T18:42:18.803Z,7.00
2022-10-25T18:45:44.571Z,6.63
2022-10-25T18:49:06.645Z,6.13
2022-10-25T18:52:28.150Z,6.15
2022-10-25T18:55:51.538Z,6.72
2022-10-25T18:59:14.651Z,6.60
2022-10-25T19:02:37.939Z,6.40
2022-10-25T19:06:00.264Z,6.57
2022-10-25T19:09:21.999Z,6.95
2022-10-25T19:12:43.228Z,6.90
2022-10-25T19:16:07.664Z,7.32
2022-10-25T19:19:29.061Z,6.97
2022-10-25T19:22:50.214Z,7.55
2022-10-25T19:26:14.715Z,7.80
2022-10-25T19:29:36.029Z,9.40
2022-10-25T19:32:58.673Z,8.50
2022-10-25T19:36:21.347Z,7.30
2022-10-25T19:39:44.723Z,7.68
2022-10-25T19:43:06.253Z,7.45
2022-10-25T19:46:27.673Z,7.88
2022-10-25T19:49:50.461Z,7.63
2022-10-25T19:53:11.851Z,6.97
2022-10-25T19:56:35.203Z,7.80
2022-10-25T19:59:56.753Z,6.43
2022-10-25T20:03:18.087Z,6.80
2022-10-25T20:06:41.832Z,7.00
2022-10-25T20:10:02.985Z,7.30
2022-10-25T20:13:24.298Z,7.50
2022-10-25T20:16:45.756Z,8.07
2022-10-25T20:20:09.529Z,7.00
2022-10-25T20:23:32.826Z,7.35
2022-10-25T20:26:56.247Z,7.13
2022-10-25T20:30:18.095Z,7.18
2022-10-25T20:33:39.591Z,6.88
2022-10-25T20:37:03.827Z,6.30
2022-10-25T20:40:27.370Z,6.68
2022-10-25T20:43:49.718Z,7.05
2022-10-25T20:47:11.501Z,7.13
2022-10-25T20:50:34.042Z,8.00
2022-10-25T20:53:56.863Z,7.25
2022-10-25T20:57:20.014Z,6.60
2022-10-25T21:00:42.030Z,6.47
2022-10-25T21:04:03.564Z,7.38
2022-10-25T21:07:25.332Z,7.32
2022-10-25T21:10:54.769Z,7.50
2022-10-25T21:14:17.819Z,7.38
2022-10-25T21:17:39.232Z,7.43
2022-10-25T21:21:02.869Z,6.93
2022-10-25T21:24:24.694Z,6.65
2022-10-25T21:27:47.266Z,6.90
2022-10-25T21:31:12.550Z,7.22
2022-10-25T21:34:34.424Z,7.30
2022-10-25T21:37:57.057Z,7.45
2022-10-25T21:41:26.482Z,7.30
2022-10-25T21:44:48.145Z,7.10
2022-10-25T21:48:12.016Z,7.03
2022-10-25T21:51:33.329Z,7.20
2022-10-25T21:54:54.661Z,7.13
2022-10-25T21:58:15.897Z,6.88
2022-10-25T22:01:37.363Z,6.35
2022-10-25T22:05:00.491Z,6.38
2022-10-25T22:08:22.214Z,7.50
2022-10-25T22:11:43.599Z,6.40
2022-10-25T22:15:05.558Z,7.00
2022-10-25T22:18:27.093Z,6.97
2022-10-25T22:21:51.917Z,7.45
2022-10-25T22:25:13.491Z,6.93
2022-10-25T22:28:38.251Z,7.18
2022-10-25T22:32:02.489Z,7.47
2022-10-25T22:35:23.965Z,7.13
2022-10-25T22:38:48.191Z,6.70
2022-10-25T22:42:12.226Z,6.85
2022-10-25T22:45:35.342Z,6.50
2022-10-25T22:48:59.144Z,6.20
2022-10-25T22:52:20.697Z,6.35
2022-10-25T22:55:44.039Z,5.80
2022-10-25T22:59:06.655Z,5.83
2022-10-25T23:02:27.845Z,5.50
2022-10-25T23:05:49.102Z,5.47
2022-10-25T23:09:12.124Z,5.40
2022-10-25T23:12:34.831Z,5.00
2022-10-25T23:15:56.176Z,5.20
2022-10-25T23:19:17.466Z,5.47
2022-10-25T23:22:38.723Z,5.47
2022-10-25T23:26:00.877Z,5.57
2022-10-25T23:29:24.152Z,5.40
2022-10-25T23:32:45.970Z,5.00
2022-10-25T23:36:10.201Z,5.17
2022-10-25T23:39:31.700Z,5.20
2022-10-25T23:42:53.728Z,5.60
2022-10-25T23:46:17.058Z,5.33
2022-10-25T23:49:38.498Z,5.80
2022-10-25T23:53:00.339Z,5.90
2022-10-25T23:56:22.289Z,5.70
2022-10-25T23:59:43.651Z,6.20
